sensor_id;sensor_type;location;lat;lon;timestamp;P1;durP1;ratioP1;P2;durP2;ratioP2
18503;SDS011;9381;54.244;10.074;2023-04-24T00:02:17;14.07;;;11.57;;
18503;SDS011;9381;54.244;10.074;2023-04-24T00:07:18;14.07;;;12.57;;
18503;SDS011;9381;54.244;10.074;2023-04-24T00:12:20;14.83;;;11.80;;
18503;SDS011;9381;54.244;10.074;2023-04-24T00:17:20;13.57;;;11.93;;
18503;SDS011;9381;54.244;10.074;2023-04-24T00:22:20;14.30;;;11.83;;
18503;SDS011;9381;54.244;10.074;2023-04-24T00:27:21;13.93;;;11.98;;
18503;SDS011;9381;54.244;10.074;2023-04-24T00:32:21;17.67;;;12.50;;
18503;SDS011;9381;54.244;10.074;2023-04-24T00:37:22;13.87;;;11.53;;
18503;SDS011;9381;54.244;10.074;2023-04-24T00:42:22;13.63;;;11.93;;
18503;SDS011;9381;54.244;10.074;2023-04-24T00:47:23;12.40;;;11.00;;
18503;SDS011;9381;54.244;10.074;2023-04-24T00:52:24;12.00;;;10.07;;
18503;SDS011;9381;54.244;10.074;2023-04-24T00:57:25;10.23;;;9.13;;
18503;SDS011;9381;54.244;10.074;2023-04-24T01:02:26;11.50;;;8.47;;
18503;SDS011;9381;54.244;10.074;2023-04-24T01:07:26;11.37;;;9.07;;
18503;SDS011;9381;54.244;10.074;2023-04-24T01:12:27;9.40;;;8.50;;
18503;SDS011;9381;54.244;10.074;2023-04-24T01:17:27;10.13;;;9.13;;
18503;SDS011;9381;54.244;10.074;2023-04-24T01:22:28;10.97;;;8.97;;
18503;SDS011;9381;54.244;10.074;2023-04-24T01:27:28;8.87;;;7.97;;
18503;SDS011;9381;54.244;10.074;2023-04-24T01:32:29;9.60;;;8.37;;
18503;SDS011;9381;54.244;10.074;2023-04-24T01:37:29;9.20;;;8.27;;
18503;SDS011;9381;54.244;10.074;2023-04-24T01:42:31;9.20;;;8.17;;
18503;SDS011;9381;54.244;10.074;2023-04-24T01:47:32;10.10;;;9.07;;
18503;SDS011;9381;54.244;10.074;2023-04-24T01:52:32;9.75;;;8.75;;
18503;SDS011;9381;54.244;10.074;2023-04-24T01:57:33;12.83;;;9.50;;
18503;SDS011;9381;54.244;10.074;2023-04-24T02:02:33;10.87;;;9.23;;
18503;SDS011;9381;54.244;10.074;2023-04-24T02:07:34;12.53;;;8.83;;
18503;SDS011;9381;54.244;10.074;2023-04-24T02:12:34;11.50;;;8.95;;
18503;SDS011;9381;54.244;10.074;2023-04-24T02:17:35;10.57;;;9.55;;
18503;SDS011;9381;54.244;10.074;2023-04-24T02:22:36;10.27;;;9.07;;
18503;SDS011;9381;54.244;10.074;2023-04-24T02:27:36;13.47;;;9.87;;
18503;SDS011;9381;54.244;10.074;2023-04-24T02:32:37;11.23;;;9.90;;
18503;SDS011;9381;54.244;10.074;2023-04-24T02:37:38;10.70;;;9.60;;
18503;SDS011;9381;54.244;10.074;2023-04-24T02:42:39;11.33;;;10.17;;
18503;SDS011;9381;54.244;10.074;2023-04-24T02:47:39;11.40;;;10.30;;
18503;SDS011;9381;54.244;10.074;2023-04-24T02:52:40;11.57;;;10.38;;
18503;SDS011;9381;54.244;10.074;2023-04-24T02:57:40;11.47;;;9.63;;
18503;SDS011;9381;54.244;10.074;2023-04-24T03:02:40;9.87;;;8.93;;
18503;SDS011;9381;54.244;10.074;2023-04-24T03:07:41;9.77;;;8.77;;
18503;SDS011;9381;54.244;10.074;2023-04-24T03:12:41;9.95;;;8.82;;
18503;SDS011;9381;54.244;10.074;2023-04-24T03:17:41;9.55;;;8.60;;
18503;SDS011;9381;54.244;10.074;2023-04-24T03:22:42;9.45;;;8.45;;
18503;SDS011;9381;54.244;10.074;2023-04-24T03:27:42;9.43;;;8.23;;
18503;SDS011;9381;54.244;10.074;2023-04-24T03:32:42;9.38;;;8.38;;
18503;SDS011;9381;54.244;10.074;2023-04-24T03:37:43;12.87;;;8.83;;
18503;SDS011;9381;54.244;10.074;2023-04-24T03:42:43;9.60;;;8.68;;
18503;SDS011;9381;54.244;10.074;2023-04-24T03:47:43;9.02;;;7.72;;
18503;SDS011;9381;54.244;10.074;2023-04-24T03:52:43;8.60;;;7.70;;
18503;SDS011;9381;54.244;10.074;2023-04-24T03:57:44;8.85;;;7.95;;
18503;SDS011;9381;54.244;10.074;2023-04-24T04:02:44;8.60;;;7.70;;
18503;SDS011;9381;54.244;10.074;2023-04-24T04:07:45;10.05;;;8.40;;
18503;SDS011;9381;54.244;10.074;2023-04-24T04:12:45;10.00;;;8.93;;
18503;SDS011;9381;54.244;10.074;2023-04-24T04:17:45;10.07;;;8.30;;
18503;SDS011;9381;54.244;10.074;2023-04-24T04:22:46;9.95;;;7.40;;
18503;SDS011;9381;54.244;10.074;2023-04-24T04:27:46;7.30;;;6.60;;
18503;SDS011;9381;54.244;10.074;2023-04-24T04:32:48;7.23;;;6.43;;
18503;SDS011;9381;54.244;10.074;2023-04-24T04:37:48;7.83;;;5.50;;
18503;SDS011;9381;54.244;10.074;2023-04-24T04:42:49;5.37;;;4.93;;
18503;SDS011;9381;54.244;10.074;2023-04-24T04:47:52;5.27;;;4.77;;
18503;SDS011;9381;54.244;10.074;2023-04-24T04:52:54;4.93;;;4.43;;
18503;SDS011;9381;54.244;10.074;2023-04-24T04:57:55;5.07;;;4.57;;
18503;SDS011;9381;54.244;10.074;2023-04-24T05:02:56;4.83;;;4.43;;
18503;SDS011;9381;54.244;10.074;2023-04-24T05:07:56;5.22;;;4.82;;
18503;SDS011;9381;54.244;10.074;2023-04-24T05:12:56;4.83;;;4.33;;
18503;SDS011;9381;54.244;10.074;2023-04-24T05:17:56;4.80;;;4.40;;
18503;SDS011;9381;54.244;10.074;2023-04-24T05:22:57;4.90;;;4.40;;
18503;SDS011;9381;54.244;10.074;2023-04-24T05:27:57;5.10;;;4.70;;
18503;SDS011;9381;54.244;10.074;2023-04-24T05:32:57;5.00;;;4.53;;
18503;SDS011;9381;54.244;10.074;2023-04-24T05:37:58;7.82;;;4.97;;
18503;SDS011;9381;54.244;10.074;2023-04-24T05:42:58;7.25;;;5.15;;
18503;SDS011;9381;54.244;10.074;2023-04-24T05:47:58;5.13;;;4.70;;
18503;SDS011;9381;54.244;10.074;2023-04-24T05:52:58;4.97;;;4.35;;
18503;SDS011;9381;54.244;10.074;2023-04-24T05:57:59;5.23;;;4.73;;
18503;SDS011;9381;54.244;10.074;2023-04-24T06:03:00;5.70;;;5.20;;
18503;SDS011;9381;54.244;10.074;2023-04-24T06:08:00;4.83;;;4.10;;
18503;SDS011;9381;54.244;10.074;2023-04-24T06:13:00;6.57;;;4.35;;
18503;SDS011;9381;54.244;10.074;2023-04-24T06:18:01;5.07;;;4.07;;
18503;SDS011;9381;54.244;10.074;2023-04-24T06:23:01;4.87;;;4.27;;
18503;SDS011;9381;54.244;10.074;2023-04-24T06:28:03;3.80;;;3.50;;
18503;SDS011;9381;54.244;10.074;2023-04-24T06:33:03;4.20;;;3.80;;
18503;SDS011;9381;54.244;10.074;2023-04-24T06:38:04;4.03;;;3.73;;
18503;SDS011;9381;54.244;10.074;2023-04-24T06:43:04;3.90;;;3.60;;
18503;SDS011;9381;54.244;10.074;2023-04-24T06:48:06;4.17;;;3.87;;
18503;SDS011;9381;54.244;10.074;2023-04-24T06:53:06;4.70;;;4.17;;
18503;SDS011;9381;54.244;10.074;2023-04-24T06:58:06;4.47;;;4.07;;
18503;SDS011;9381;54.244;10.074;2023-04-24T07:03:06;4.05;;;3.58;;
18503;SDS011;9381;54.244;10.074;2023-04-24T07:08:07;3.88;;;3.45;;
18503;SDS011;9381;54.244;10.074;2023-04-24T07:13:08;3.57;;;3.30;;
18503;SDS011;9381;54.244;10.074;2023-04-24T07:18:09;4.07;;;3.17;;
18503;SDS011;9381;54.244;10.074;2023-04-24T07:23:09;3.90;;;3.20;;
18503;SDS011;9381;54.244;10.074;2023-04-24T07:28:10;3.57;;;3.27;;
18503;SDS011;9381;54.244;10.074;2023-04-24T07:33:10;5.30;;;3.22;;
18503;SDS011;9381;54.244;10.074;2023-04-24T07:38:12;3.67;;;3.37;;
18503;SDS011;9381;54.244;10.074;2023-04-24T07:43:13;3.78;;;3.47;;
18503;SDS011;9381;54.244;10.074;2023-04-24T07:48:13;3.83;;;3.50;;
18503;SDS011;9381;54.244;10.074;2023-04-24T07:53:16;3.97;;;3.67;;
18503;SDS011;9381;54.244;10.074;2023-04-24T07:58:16;3.72;;;3.42;;
18503;SDS011;9381;54.244;10.074;2023-04-24T08:03:16;4.25;;;3.70;;
18503;SDS011;9381;54.244;10.074;2023-04-24T08:08:20;4.17;;;3.70;;
18503;SDS011;9381;54.244;10.074;2023-04-24T08:13:21;4.53;;;3.97;;
18503;SDS011;9381;54.244;10.074;2023-04-24T08:18:22;5.00;;;4.17;;
18503;SDS011;9381;54.244;10.074;2023-04-24T08:23:22;5.23;;;4.50;;
18503;SDS011;9381;54.244;10.074;2023-04-24T08:28:22;5.97;;;5.00;;
18503;SDS011;9381;54.244;10.074;2023-04-24T08:33:23;7.83;;;5.60;;
18503;SDS011;9381;54.244;10.074;2023-04-24T08:38:24;6.00;;;5.50;;
18503;SDS011;9381;54.244;10.074;2023-04-24T08:43:25;6.53;;;5.60;;
18503;SDS011;9381;54.244;10.074;2023-04-24T08:48:26;6.93;;;6.23;;
18503;SDS011;9381;54.244;10.074;2023-04-24T08:53:26;7.00;;;6.17;;
18503;SDS011;9381;54.244;10.074;2023-04-24T08:58:27;6.67;;;6.07;;
18503;SDS011;9381;54.244;10.074;2023-04-24T09:03:28;7.43;;;6.73;;
18503;SDS011;9381;54.244;10.074;2023-04-24T09:08:29;6.07;;;5.47;;
18503;SDS011;9381;54.244;10.074;2023-04-24T09:13:30;6.13;;;5.47;;
18503;SDS011;9381;54.244;10.074;2023-04-24T09:18:32;7.37;;;6.67;;
18503;SDS011;9381;54.244;10.074;2023-04-24T09:23:32;8.97;;;7.77;;
18503;SDS011;9381;54.244;10.074;2023-04-24T09:28:37;9.80;;;8.83;;
18503;SDS011;9381;54.244;10.074;2023-04-24T09:33:39;10.27;;;9.37;;
18503;SDS011;9381;54.244;10.074;2023-04-24T09:38:39;10.57;;;9.60;;
18503;SDS011;9381;54.244;10.074;2023-04-24T09:43:40;10.38;;;9.32;;
18503;SDS011;9381;54.244;10.074;2023-04-24T09:48:40;9.00;;;8.20;;
18503;SDS011;9381;54.244;10.074;2023-04-24T09:53:45;8.23;;;7.53;;
18503;SDS011;9381;54.244;10.074;2023-04-24T09:58:46;8.63;;;7.83;;
18503;SDS011;9381;54.244;10.074;2023-04-24T10:03:46;9.67;;;8.77;;
18503;SDS011;9381;54.244;10.074;2023-04-24T10:08:47;8.93;;;8.03;;
18503;SDS011;9381;54.244;10.074;2023-04-24T10:13:50;11.13;;;8.57;;
18503;SDS011;9381;54.244;10.074;2023-04-24T10:18:51;9.30;;;8.50;;
18503;SDS011;9381;54.244;10.074;2023-04-24T10:23:52;10.80;;;9.70;;
18503;SDS011;9381;54.244;10.074;2023-04-24T10:28:53;10.10;;;9.10;;
18503;SDS011;9381;54.244;10.074;2023-04-24T10:33:55;10.53;;;9.27;;
18503;SDS011;9381;54.244;10.074;2023-04-24T10:38:56;10.53;;;9.27;;
18503;SDS011;9381;54.244;10.074;2023-04-24T10:49:09;10.67;;;9.57;;
18503;SDS011;9381;54.244;10.074;2023-04-24T10:54:23;10.40;;;8.97;;
18503;SDS011;9381;54.244;10.074;2023-04-24T10:59:25;10.57;;;9.40;;
18503;SDS011;9381;54.244;10.074;2023-04-24T11:04:30;11.03;;;9.97;;
18503;SDS011;9381;54.244;10.074;2023-04-24T11:09:32;11.90;;;10.70;;
18503;SDS011;9381;54.244;10.074;2023-04-24T11:20:00;13.10;;;11.47;;
18503;SDS011;9381;54.244;10.074;2023-04-24T11:25:07;11.50;;;10.30;;
18503;SDS011;9381;54.244;10.074;2023-04-24T11:30:08;13.97;;;10.47;;
18503;SDS011;9381;54.244;10.074;2023-04-24T11:35:16;13.13;;;9.90;;
18503;SDS011;9381;54.244;10.074;2023-04-24T11:40:18;12.87;;;11.33;;
18503;SDS011;9381;54.244;10.074;2023-04-24T11:45:29;14.20;;;11.97;;
18503;SDS011;9381;54.244;10.074;2023-04-24T11:50:31;13.00;;;11.70;;
18503;SDS011;9381;54.244;10.074;2023-04-24T11:55:31;13.30;;;11.90;;
18503;SDS011;9381;54.244;10.074;2023-04-24T12:00:32;15.37;;;12.27;;
18503;SDS011;9381;54.244;10.074;2023-04-24T12:05:36;13.10;;;11.70;;
18503;SDS011;9381;54.244;10.074;2023-04-24T12:10:36;12.80;;;11.43;;
18503;SDS011;9381;54.244;10.074;2023-04-24T12:15:39;14.90;;;13.27;;
18503;SDS011;9381;54.244;10.074;2023-04-24T12:20:40;15.63;;;13.50;;
18503;SDS011;9381;54.244;10.074;2023-04-24T12:25:40;13.70;;;12.00;;
18503;SDS011;9381;54.244;10.074;2023-04-24T12:30:44;11.23;;;10.13;;
18503;SDS011;9381;54.244;10.074;2023-04-24T12:35:51;13.20;;;11.70;;
18503;SDS011;9381;54.244;10.074;2023-04-24T12:41:02;12.33;;;11.03;;
18503;SDS011;9381;54.244;10.074;2023-04-24T12:46:04;13.20;;;11.70;;
18503;SDS011;9381;54.244;10.074;2023-04-24T12:51:05;13.10;;;11.70;;
18503;SDS011;9381;54.244;10.074;2023-04-24T12:56:05;12.73;;;11.52;;
18503;SDS011;9381;54.244;10.074;2023-04-24T13:01:06;17.77;;;13.17;;
18503;SDS011;9381;54.244;10.074;2023-04-24T13:06:06;17.90;;;14.97;;
18503;SDS011;9381;54.244;10.074;2023-04-24T13:11:06;18.80;;;16.47;;
18503;SDS011;9381;54.244;10.074;2023-04-24T13:16:07;19.75;;;15.13;;
18503;SDS011;9381;54.244;10.074;2023-04-24T13:21:07;19.03;;;15.57;;
18503;SDS011;9381;54.244;10.074;2023-04-24T13:26:07;18.42;;;16.33;;
18503;SDS011;9381;54.244;10.074;2023-04-24T13:31:08;19.20;;;14.67;;
18503;SDS011;9381;54.244;10.074;2023-04-24T13:36:09;17.83;;;14.17;;
18503;SDS011;9381;54.244;10.074;2023-04-24T13:41:10;17.70;;;15.13;;
18503;SDS011;9381;54.244;10.074;2023-04-24T13:46:10;19.03;;;16.13;;
18503;SDS011;9381;54.244;10.074;2023-04-24T13:51:11;20.70;;;15.60;;
18503;SDS011;9381;54.244;10.074;2023-04-24T13:56:11;18.80;;;15.70;;
18503;SDS011;9381;54.244;10.074;2023-04-24T14:01:12;20.53;;;15.70;;
18503;SDS011;9381;54.244;10.074;2023-04-24T14:06:13;15.83;;;14.20;;
18503;SDS011;9381;54.244;10.074;2023-04-24T14:11:13;14.27;;;12.50;;
18503;SDS011;9381;54.244;10.074;2023-04-24T14:16:14;14.03;;;12.03;;
18503;SDS011;9381;54.244;10.074;2023-04-24T14:21:15;12.63;;;11.33;;
18503;SDS011;9381;54.244;10.074;2023-04-24T14:26:16;17.30;;;11.97;;
18503;SDS011;9381;54.244;10.074;2023-04-24T14:31:16;13.80;;;12.33;;
18503;SDS011;9381;54.244;10.074;2023-04-24T14:36:16;12.50;;;11.20;;
18503;SDS011;9381;54.244;10.074;2023-04-24T14:41:17;12.67;;;11.30;;
18503;SDS011;9381;54.244;10.074;2023-04-24T14:46:17;14.90;;;12.83;;
18503;SDS011;9381;54.244;10.074;2023-04-24T14:51:17;14.32;;;11.23;;
18503;SDS011;9381;54.244;10.074;2023-04-24T14:56:17;12.23;;;10.93;;
18503;SDS011;9381;54.244;10.074;2023-04-24T15:01:18;12.13;;;9.27;;
18503;SDS011;9381;54.244;10.074;2023-04-24T15:06:18;9.40;;;8.50;;
18503;SDS011;9381;54.244;10.074;2023-04-24T15:11:20;9.47;;;8.57;;
18503;SDS011;9381;54.244;10.074;2023-04-24T15:16:20;9.70;;;8.47;;
18503;SDS011;9381;54.244;10.074;2023-04-24T15:21:20;9.83;;;8.77;;
18503;SDS011;9381;54.244;10.074;2023-04-24T15:26:21;12.18;;;10.25;;
18503;SDS011;9381;54.244;10.074;2023-04-24T15:31:22;10.87;;;8.90;;
18503;SDS011;9381;54.244;10.074;2023-04-24T15:36:22;9.87;;;8.30;;
18503;SDS011;9381;54.244;10.074;2023-04-24T15:41:23;7.90;;;7.20;;
18503;SDS011;9381;54.244;10.074;2023-04-24T15:46:23;5.32;;;4.82;;
18503;SDS011;9381;54.244;10.074;2023-04-24T15:51:23;3.10;;;2.83;;
18503;SDS011;9381;54.244;10.074;2023-04-24T15:56:24;3.58;;;2.90;;
18503;SDS011;9381;54.244;10.074;2023-04-24T16:01:24;4.33;;;3.93;;
18503;SDS011;9381;54.244;10.074;2023-04-24T16:06:24;4.93;;;4.07;;
18503;SDS011;9381;54.244;10.074;2023-04-24T16:11:26;6.53;;;6.00;;
18503;SDS011;9381;54.244;10.074;2023-04-24T16:16:27;9.03;;;8.13;;
18503;SDS011;9381;54.244;10.074;2023-04-24T16:21:27;10.47;;;9.57;;
18503;SDS011;9381;54.244;10.074;2023-04-24T16:26:27;9.98;;;9.10;;
18503;SDS011;9381;54.244;10.074;2023-04-24T16:31:27;9.30;;;8.50;;
18503;SDS011;9381;54.244;10.074;2023-04-24T16:36:28;8.82;;;8.13;;
18503;SDS011;9381;54.244;10.074;2023-04-24T16:41:28;11.03;;;9.47;;
18503;SDS011;9381;54.244;10.074;2023-04-24T16:46:29;13.67;;;10.97;;
18503;SDS011;9381;54.244;10.074;2023-04-24T16:51:29;17.07;;;12.40;;
18503;SDS011;9381;54.244;10.074;2023-04-24T16:56:30;18.83;;;13.37;;
18503;SDS011;9381;54.244;10.074;2023-04-24T17:01:31;17.75;;;10.95;;
18503;SDS011;9381;54.244;10.074;2023-04-24T17:06:31;16.90;;;10.88;;
18503;SDS011;9381;54.244;10.074;2023-04-24T17:11:31;18.10;;;10.80;;
18503;SDS011;9381;54.244;10.074;2023-04-24T17:16:32;11.00;;;9.10;;
18503;SDS011;9381;54.244;10.074;2023-04-24T17:21:32;15.30;;;8.80;;
18503;SDS011;9381;54.244;10.074;2023-04-24T17:26:33;14.70;;;8.17;;
18503;SDS011;9381;54.244;10.074;2023-04-24T17:31:33;10.33;;;8.33;;
18503;SDS011;9381;54.244;10.074;2023-04-24T17:36:34;14.73;;;8.00;;
18503;SDS011;9381;54.244;10.074;2023-04-24T17:41:34;12.77;;;8.33;;
18503;SDS011;9381;54.244;10.074;2023-04-24T17:46:35;18.47;;;10.50;;
18503;SDS011;9381;54.244;10.074;2023-04-24T17:51:36;11.30;;;7.43;;
18503;SDS011;9381;54.244;10.074;2023-04-24T17:56:36;11.15;;;6.47;;
18503;SDS011;9381;54.244;10.074;2023-04-24T18:01:36;13.02;;;7.18;;
18503;SDS011;9381;54.244;10.074;2023-04-24T18:06:36;11.68;;;7.00;;
18503;SDS011;9381;54.244;10.074;2023-04-24T18:11:38;13.30;;;6.93;;
18503;SDS011;9381;54.244;10.074;2023-04-24T18:16:39;12.07;;;7.67;;
18503;SDS011;9381;54.244;10.074;2023-04-24T18:21:39;11.93;;;7.72;;
18503;SDS011;9381;54.244;10.074;2023-04-24T18:26:39;16.00;;;7.53;;
18503;SDS011;9381;54.244;10.074;2023-04-24T18:31:40;15.10;;;7.40;;
18503;SDS011;9381;54.244;10.074;2023-04-24T18:36:40;10.53;;;6.67;;
18503;SDS011;9381;54.244;10.074;2023-04-24T18:41:40;11.18;;;7.65;;
18503;SDS011;9381;54.244;10.074;2023-04-24T18:46:41;11.37;;;7.33;;
18503;SDS011;9381;54.244;10.074;2023-04-24T18:51:41;14.50;;;7.00;;
18503;SDS011;9381;54.244;10.074;2023-04-24T18:56:42;13.67;;;7.03;;
18503;SDS011;9381;54.244;10.074;2023-04-24T19:01:42;11.85;;;6.78;;
18503;SDS011;9381;54.244;10.074;2023-04-24T19:06:42;15.23;;;7.03;;
18503;SDS011;9381;54.244;10.074;2023-04-24T19:11:43;12.15;;;6.50;;
18503;SDS011;9381;54.244;10.074;2023-04-24T19:16:43;16.43;;;7.20;;
18503;SDS011;9381;54.244;10.074;2023-04-24T19:21:44;16.20;;;7.50;;
18503;SDS011;9381;54.244;10.074;2023-04-24T19:26:46;16.30;;;6.73;;
18503;SDS011;9381;54.244;10.074;2023-04-24T19:31:47;16.67;;;6.63;;
18503;SDS011;9381;54.244;10.074;2023-04-24T19:36:47;19.03;;;5.97;;
18503;SDS011;9381;54.244;10.074;2023-04-24T19:41:47;15.17;;;6.30;;
18503;SDS011;9381;54.244;10.074;2023-04-24T19:46:48;16.47;;;6.47;;
18503;SDS011;9381;54.244;10.074;2023-04-24T19:51:48;11.02;;;6.38;;
18503;SDS011;9381;54.244;10.074;2023-04-24T19:56:48;12.55;;;6.32;;
18503;SDS011;9381;54.244;10.074;2023-04-24T20:01:48;11.85;;;5.82;;
18503;SDS011;9381;54.244;10.074;2023-04-24T20:06:50;15.80;;;5.90;;
18503;SDS011;9381;54.244;10.074;2023-04-24T20:11:50;12.73;;;6.65;;
18503;SDS011;9381;54.244;10.074;2023-04-24T20:16:52;15.27;;;7.43;;
18503;SDS011;9381;54.244;10.074;2023-04-24T20:21:53;13.10;;;7.07;;
18503;SDS011;9381;54.244;10.074;2023-04-24T20:26:53;14.07;;;7.80;;
18503;SDS011;9381;54.244;10.074;2023-04-24T20:31:54;12.35;;;8.02;;
18503;SDS011;9381;54.244;10.074;2023-04-24T20:36:54;12.77;;;7.87;;
18503;SDS011;9381;54.244;10.074;2023-04-24T20:41:56;14.53;;;7.60;;
18503;SDS011;9381;54.244;10.074;2023-04-24T20:46:57;10.00;;;6.63;;
18503;SDS011;9381;54.244;10.074;2023-04-24T20:51:57;12.30;;;7.47;;
18503;SDS011;9381;54.244;10.074;2023-04-24T20:57:00;11.33;;;8.47;;
18503;SDS011;9381;54.244;10.074;2023-04-24T21:02:00;13.63;;;9.00;;
18503;SDS011;9381;54.244;10.074;2023-04-24T21:07:01;11.57;;;8.77;;
18503;SDS011;9381;54.244;10.074;2023-04-24T21:12:01;10.70;;;8.10;;
18503;SDS011;9381;54.244;10.074;2023-04-24T21:17:01;8.93;;;6.37;;
18503;SDS011;9381;54.244;10.074;2023-04-24T21:22:02;7.13;;;6.27;;
18503;SDS011;9381;54.244;10.074;2023-04-24T21:27:02;12.07;;;7.10;;
18503;SDS011;9381;54.244;10.074;2023-04-24T21:32:03;8.60;;;6.63;;
18503;SDS011;9381;54.244;10.074;2023-04-24T21:37:03;10.07;;;6.57;;
18503;SDS011;9381;54.244;10.074;2023-04-24T21:42:04;11.50;;;7.28;;
18503;SDS011;9381;54.244;10.074;2023-04-24T21:47:04;11.97;;;7.13;;
18503;SDS011;9381;54.244;10.074;2023-04-24T21:52:04;12.15;;;7.72;;
18503;SDS011;9381;54.244;10.074;2023-04-24T21:57:04;11.35;;;7.47;;
18503;SDS011;9381;54.244;10.074;2023-04-24T22:02:05;11.03;;;7.13;;
18503;SDS011;9381;54.244;10.074;2023-04-24T22:07:05;15.57;;;7.97;;
18503;SDS011;9381;54.244;10.074;2023-04-24T22:12:06;14.00;;;7.50;;
18503;SDS011;9381;54.244;10.074;2023-04-24T22:17:06;15.65;;;7.57;;
18503;SDS011;9381;54.244;10.074;2023-04-24T22:22:08;19.30;;;7.30;;
18503;SDS011;9381;54.244;10.074;2023-04-24T22:27:08;17.67;;;7.63;;
18503;SDS011;9381;54.244;10.074;2023-04-24T22:32:09;18.20;;;7.90;;
18503;SDS011;9381;54.244;10.074;2023-04-24T22:37:09;25.67;;;8.03;;
18503;SDS011;9381;54.244;10.074;2023-04-24T22:42:10;18.77;;;7.13;;
18503;SDS011;9381;54.244;10.074;2023-04-24T22:47:10;20.43;;;7.50;;
18503;SDS011;9381;54.244;10.074;2023-04-24T22:52:11;25.43;;;7.07;;
18503;SDS011;9381;54.244;10.074;2023-04-24T22:57:13;19.53;;;6.73;;
18503;SDS011;9381;54.244;10.074;2023-04-24T23:02:14;24.67;;;7.00;;
18503;SDS011;9381;54.244;10.074;2023-04-24T23:07:15;23.57;;;6.70;;
18503;SDS011;9381;54.244;10.074;2023-04-24T23:12:15;18.50;;;6.25;;
18503;SDS011;9381;54.244;10.074;2023-04-24T23:17:16;19.87;;;6.27;;
18503;SDS011;9381;54.244;10.074;2023-04-24T23:22:16;18.52;;;5.93;;
18503;SDS011;9381;54.244;10.074;2023-04-24T23:27:17;20.90;;;5.53;;
18503;SDS011;9381;54.244;10.074;2023-04-24T23:32:17;18.63;;;4.43;;
18503;SDS011;9381;54.244;10.074;2023-04-24T23:37:17;14.10;;;5.05;;
18503;SDS011;9381;54.244;10.074;2023-04-24T23:42:17;13.90;;;3.87;;
18503;SDS011;9381;54.244;10.074;2023-04-24T23:47:18;20.15;;;4.53;;
18503;SDS011;9381;54.244;10.074;2023-04-24T23:52:18;18.50;;;4.45;;
18503;SDS011;9381;54.244;10.074;2023-04-24T23:57:18;15.20;;;4.32;;
